createdAt,value
2023-02-11T00:00:56.505Z,54.77
2023-02-11T00:03:23.519Z,59.73
2023-02-11T00:06:05.947Z,55.93
2023-02-11T00:08:32.875Z,53.90
2023-02-11T00:11:00.330Z,58.43
2023-02-11T00:13:27.531Z,57.47
2023-02-11T00:15:55.441Z,58.00
2023-02-11T00:18:22.508Z,60.23
2023-02-11T00:20:49.522Z,55.43
2023-02-11T00:23:16.925Z,58.60
2023-02-11T00:25:45.315Z,55.80
2023-02-11T00:28:12.690Z,61.67
2023-02-11T00:30:39.957Z,55.83
2023-02-11T00:33:07.016Z,57.70
2023-02-11T00:35:34.112Z,56.67
2023-02-11T00:38:00.887Z,59.97
2023-02-11T00:40:28.173Z,60.23
2023-02-11T00:42:54.965Z,56.33
2023-02-11T00:45:21.812Z,53.50
2023-02-11T00:47:48.923Z,52.97
2023-02-11T00:50:15.785Z,58.43
2023-02-11T00:52:42.714Z,53.47
2023-02-11T00:55:09.770Z,60.13
2023-02-11T00:57:37.090Z,58.10
2023-02-11T01:00:06.399Z,63.67
2023-02-11T01:02:33.678Z,60.97
2023-02-11T01:05:01.010Z,60.47
2023-02-11T01:07:29.043Z,61.47
2023-02-11T01:09:56.245Z,61.43
2023-02-11T01:12:23.571Z,65.43
2023-02-11T01:14:50.402Z,59.37
2023-02-11T01:17:17.636Z,65.93
2023-02-11T01:19:44.457Z,65.70
2023-02-11T01:22:11.307Z,68.27
2023-02-11T01:24:38.457Z,65.47
2023-02-11T01:27:05.304Z,72.30
2023-02-11T01:29:32.256Z,65.23
2023-02-11T01:32:00.918Z,72.27
2023-02-11T01:34:28.411Z,70.70
2023-02-11T01:37:01.535Z,68.27
2023-02-11T01:39:28.775Z,67.07
2023-02-11T01:41:55.671Z,68.20
2023-02-11T01:44:32.295Z,68.87
2023-02-11T01:46:59.651Z,69.03
2023-02-11T01:49:32.941Z,70.60
2023-02-11T01:52:12.108Z,71.43
2023-02-11T01:55:02.176Z,73.70
2023-02-11T01:57:30.860Z,68.37
2023-02-11T02:00:03.908Z,73.97
2023-02-11T02:02:46.784Z,72.07
2023-02-11T02:05:32.349Z,74.70
2023-02-11T02:08:29.855Z,76.17
2023-02-11T02:11:00.550Z,80.80
2023-02-11T02:13:30.569Z,78.90
2023-02-11T02:16:03.535Z,74.63
2023-02-11T02:19:01.017Z,81.13
2023-02-11T02:22:10.469Z,76.03
2023-02-11T02:24:56.848Z,75.63
2023-02-11T02:27:36.174Z,75.60
2023-02-11T02:30:37.116Z,74.93
2023-02-11T02:33:23.845Z,81.90
2023-02-11T02:36:12.874Z,70.70
2023-02-11T02:39:20.700Z,84.20
2023-02-11T02:41:50.884Z,73.10
2023-02-11T02:44:18.935Z,69.80
2023-02-11T02:46:46.033Z,75.80
2023-02-11T02:49:16.175Z,78.10
2023-02-11T02:52:07.276Z,58.23
2023-02-11T02:54:34.019Z,80.60
2023-02-11T02:57:38.442Z,69.00
2023-02-11T03:00:23.300Z,75.23
2023-02-11T03:03:22.396Z,67.33
2023-02-11T03:06:31.946Z,69.53
2023-02-11T03:09:12.907Z,73.33
2023-02-11T03:11:40.469Z,64.50
2023-02-11T03:14:12.259Z,69.40
2023-02-11T03:16:40.074Z,74.13
2023-02-11T03:19:13.756Z,79.57
2023-02-11T03:21:43.649Z,68.90
2023-02-11T03:24:19.416Z,74.53
2023-02-11T03:26:56.520Z,72.63
2023-02-11T03:29:45.776Z,78.27
2023-02-11T03:32:18.488Z,82.70
2023-02-11T03:35:24.929Z,68.77
2023-02-11T03:37:59.833Z,83.20
2023-02-11T03:40:32.608Z,79.00
2023-02-11T03:42:59.349Z,74.03
2023-02-11T03:45:29.752Z,73.63
2023-02-11T03:48:04.433Z,75.33
2023-02-11T03:50:33.344Z,81.10
2023-02-11T03:53:02.832Z,76.43
2023-02-11T03:55:31.800Z,76.10
2023-02-11T03:57:58.630Z,79.97
2023-02-11T04:00:35.512Z,74.30
2023-02-11T04:03:03.107Z,65.43
2023-02-11T04:05:29.944Z,74.53
2023-02-11T04:07:56.994Z,74.90
2023-02-11T04:10:23.951Z,78.70
2023-02-11T04:12:51.063Z,72.60
2023-02-11T04:15:18.186Z,65.83
2023-02-11T04:17:44.989Z,73.47
2023-02-11T04:20:12.230Z,71.03
2023-02-11T04:22:39.531Z,71.13
2023-02-11T04:25:07.071Z,69.90
2023-02-11T04:27:34.010Z,66.47
2023-02-11T04:30:02.069Z,57.80
2023-02-11T04:32:28.864Z,67.90
2023-02-11T04:34:55.650Z,71.20
2023-02-11T04:37:22.787Z,67.47
2023-02-11T04:39:49.601Z,59.33
2023-02-11T04:42:16.422Z,65.40
2023-02-11T04:44:43.247Z,59.70
2023-02-11T04:47:10.319Z,64.97
2023-02-11T04:49:37.171Z,55.67
2023-02-11T04:52:04.197Z,55.33
2023-02-11T04:54:30.982Z,54.33
2023-02-11T04:56:57.812Z,60.47
2023-02-11T04:59:25.242Z,56.00
2023-02-11T05:01:52.047Z,61.23
2023-02-11T05:04:19.134Z,52.00
2023-02-11T05:06:45.976Z,56.60
2023-02-11T05:09:13.684Z,60.63
2023-02-11T05:11:40.605Z,54.03
2023-02-11T05:14:07.887Z,55.80
2023-02-11T05:16:35.194Z,54.00
2023-02-11T05:19:01.982Z,51.77
2023-02-11T05:21:29.287Z,59.17
2023-02-11T05:23:56.082Z,56.50
2023-02-11T05:26:22.887Z,53.23
2023-02-11T05:28:49.725Z,57.67
2023-02-11T05:31:17.181Z,50.13
2023-02-11T05:33:44.198Z,50.77
2023-02-11T05:36:13.606Z,48.10
2023-02-11T05:38:42.661Z,52.07
2023-02-11T05:41:10.471Z,53.10
2023-02-11T05:43:37.528Z,52.90
2023-02-11T05:46:04.992Z,52.63
2023-02-11T05:48:32.397Z,50.10
2023-02-11T05:50:59.697Z,50.27
2023-02-11T05:53:26.585Z,49.20
2023-02-11T05:55:53.594Z,47.40
2023-02-11T05:58:20.363Z,51.80
2023-02-11T06:00:47.381Z,46.07
2023-02-11T06:03:14.539Z,48.37
2023-02-11T06:05:43.800Z,49.40
2023-02-11T06:08:10.764Z,49.87
2023-02-11T06:10:37.563Z,53.27
2023-02-11T06:13:04.715Z,52.97
2023-02-11T06:15:31.805Z,46.70
2023-02-11T06:17:58.589Z,51.03
2023-02-11T06:20:25.432Z,54.87
2023-02-11T06:22:52.207Z,52.43
2023-02-11T06:25:19.139Z,47.77
2023-02-11T06:27:45.942Z,50.33
2023-02-11T06:30:13.325Z,49.00
2023-02-11T06:32:44.289Z,54.10
2023-02-11T06:35:12.688Z,52.83
2023-02-11T06:37:40.475Z,47.90
2023-02-11T06:40:07.814Z,55.67
2023-02-11T06:42:36.197Z,53.60
2023-02-11T06:45:06.223Z,54.83
2023-02-11T06:47:33.100Z,49.53
2023-02-11T06:49:59.968Z,52.77
2023-02-11T06:52:26.972Z,54.43
2023-02-11T06:54:53.806Z,59.50
2023-02-11T06:57:20.644Z,52.27
2023-02-11T06:59:47.803Z,57.10
2023-02-11T07:02:14.744Z,56.13
2023-02-11T07:04:41.651Z,52.00
2023-02-11T07:07:08.479Z,55.90
2023-02-11T07:09:35.273Z,62.10
2023-02-11T07:12:02.077Z,51.30
2023-02-11T07:14:29.321Z,58.40
2023-02-11T07:16:56.142Z,60.40
2023-02-11T07:19:22.915Z,59.23
2023-02-11T07:21:49.799Z,62.17
2023-02-11T07:24:16.992Z,58.10
2023-02-11T07:26:44.685Z,52.63
2023-02-11T07:29:11.663Z,53.33
2023-02-11T07:31:38.678Z,56.97
2023-02-11T07:34:05.698Z,63.40
2023-02-11T07:36:32.858Z,67.27
2023-02-11T07:39:00.309Z,61.50
2023-02-11T07:41:27.860Z,62.23
2023-02-11T07:43:55.085Z,65.53
2023-02-11T07:46:27.778Z,59.87
2023-02-11T07:48:55.379Z,61.57
2023-02-11T07:51:28.008Z,64.10
2023-02-11T07:53:56.197Z,62.47
2023-02-11T07:56:23.431Z,67.93
2023-02-11T07:58:51.061Z,59.30
2023-02-11T08:01:25.558Z,63.30
2023-02-11T08:03:53.677Z,59.90
2023-02-11T08:06:22.622Z,64.90
2023-02-11T08:08:49.828Z,66.57
2023-02-11T08:11:22.675Z,64.07
2023-02-11T08:13:50.268Z,58.53
2023-02-11T08:16:23.105Z,60.67
2023-02-11T08:18:51.250Z,60.57
2023-02-11T08:21:19.204Z,64.93
2023-02-11T08:23:46.861Z,66.17
2023-02-11T08:26:17.518Z,61.50
2023-02-11T08:28:46.122Z,65.10
2023-02-11T08:31:16.899Z,64.70
2023-02-11T08:33:44.624Z,56.23
2023-02-11T08:36:17.238Z,66.13
2023-02-11T08:38:44.421Z,77.53
2023-02-11T08:41:14.822Z,65.63
2023-02-11T08:43:42.685Z,62.80
2023-02-11T08:46:13.148Z,65.70
2023-02-11T08:48:40.292Z,69.40
2023-02-11T08:51:09.084Z,64.53
2023-02-11T08:53:36.659Z,72.07
2023-02-11T08:56:04.088Z,77.17
2023-02-11T08:58:30.903Z,83.73
2023-02-11T09:00:58.174Z,67.13
2023-02-11T09:03:25.221Z,73.33
2023-02-11T09:05:53.922Z,78.53
2023-02-11T09:08:21.252Z,71.87
2023-02-11T09:10:48.508Z,74.30
2023-02-11T09:13:16.972Z,73.63
2023-02-11T09:15:49.392Z,78.70
2023-02-11T09:18:16.645Z,76.70
2023-02-11T09:20:43.548Z,71.17
2023-02-11T09:23:10.907Z,75.20
2023-02-11T09:25:40.867Z,79.03
2023-02-11T09:28:09.170Z,74.00
2023-02-11T09:30:40.524Z,79.93
2023-02-11T09:33:07.756Z,77.13
2023-02-11T09:35:34.874Z,80.40
2023-02-11T09:38:01.694Z,75.40
2023-02-11T09:40:28.608Z,88.20
2023-02-11T09:43:11.899Z,73.77
2023-02-11T09:45:38.906Z,82.33
2023-02-11T09:48:18.802Z,79.77
2023-02-11T09:51:00.317Z,78.43
2023-02-11T09:53:29.881Z,82.70
2023-02-11T09:56:00.565Z,70.73
2023-02-11T09:58:34.634Z,78.70
2023-02-11T10:01:19.376Z,80.60
2023-02-11T10:03:56.677Z,74.93
2023-02-11T10:06:43.667Z,69.47
2023-02-11T10:09:17.604Z,73.47
2023-02-11T10:11:57.200Z,75.83
2023-02-11T10:14:55.404Z,71.10
2023-02-11T10:17:40.261Z,79.53
2023-02-11T10:20:22.274Z,70.77
2023-02-11T10:22:54.435Z,68.30
2023-02-11T10:25:37.421Z,72.73
2023-02-11T10:28:24.776Z,69.17
2023-02-11T10:31:00.304Z,68.60
2023-02-11T10:33:56.115Z,68.53
2023-02-11T10:36:27.906Z,68.17
2023-02-11T10:38:55.660Z,75.30
2023-02-11T10:41:34.548Z,70.80
2023-02-11T10:44:06.452Z,76.90
2023-02-11T10:46:37.945Z,65.80
2023-02-11T10:49:04.874Z,68.30
2023-02-11T10:51:37.670Z,60.30
2023-02-11T10:54:05.215Z,71.17
2023-02-11T10:56:35.579Z,72.97
2023-02-11T10:59:07.550Z,63.80
2023-02-11T11:01:54.202Z,67.57
2023-02-11T11:04:30.556Z,58.47
2023-02-11T11:07:17.365Z,72.03
2023-02-11T11:10:04.949Z,68.33
2023-02-11T11:12:46.649Z,61.57
2023-02-11T11:15:19.111Z,65.63
2023-02-11T11:17:46.595Z,63.93
2023-02-11T11:20:20.140Z,73.03
2023-02-11T11:22:49.382Z,71.50
2023-02-11T11:25:25.658Z,70.83
2023-02-11T11:27:59.486Z,75.67
2023-02-11T11:30:34.746Z,62.33
2023-02-11T11:33:02.288Z,63.13
2023-02-11T11:35:33.012Z,63.03
2023-02-11T11:38:03.895Z,69.83
2023-02-11T11:40:35.514Z,71.33
2023-02-11T11:43:23.075Z,64.03
2023-02-11T11:45:58.813Z,68.00
2023-02-11T11:48:35.203Z,62.53
2023-02-11T11:51:05.635Z,65.73
2023-02-11T11:53:42.980Z,60.73
2023-02-11T11:56:16.179Z,61.27
2023-02-11T11:58:43.397Z,63.83
2023-02-11T12:01:42.589Z,63.47
2023-02-11T12:04:47.039Z,57.17
2023-02-11T12:07:47.216Z,58.17
2023-02-11T12:10:38.858Z,58.67
2023-02-11T12:13:35.197Z,60.10
2023-02-11T12:16:23.732Z,58.13
2023-02-11T12:19:35.879Z,61.97
2023-02-11T12:22:11.499Z,59.43
2023-02-11T12:24:53.008Z,64.53
2023-02-11T12:27:44.257Z,60.60
2023-02-11T12:30:19.111Z,54.07
2023-02-11T12:32:51.832Z,60.40
2023-02-11T12:35:35.348Z,56.47
2023-02-11T12:38:08.421Z,52.30
2023-02-11T12:40:50.450Z,58.63
2023-02-11T12:43:42.526Z,57.77
2023-02-11T12:46:28.453Z,52.50
2023-02-11T12:49:21.536Z,54.73
2023-02-11T12:51:56.376Z,61.07
2023-02-11T12:54:40.179Z,54.03
2023-02-11T12:57:28.034Z,52.27
2023-02-11T13:00:06.990Z,52.13
2023-02-11T13:02:43.433Z,52.17
2023-02-11T13:05:31.750Z,43.77
2023-02-11T13:08:31.053Z,51.80
2023-02-11T13:11:29.567Z,52.50
2023-02-11T13:14:17.214Z,43.43
2023-02-11T13:16:46.964Z,47.03
2023-02-11T13:19:13.773Z,42.83
2023-02-11T13:22:01.857Z,45.60
2023-02-11T13:24:33.876Z,52.27
2023-02-11T13:27:28.468Z,53.63
2023-02-11T13:30:14.308Z,48.57
2023-02-11T13:32:56.276Z,46.90
2023-02-11T13:35:35.479Z,48.90
2023-02-11T13:38:18.245Z,45.63
2023-02-11T13:40:45.840Z,48.87
2023-02-11T13:43:25.432Z,42.67
2023-02-11T13:45:57.613Z,42.90
2023-02-11T13:48:45.526Z,47.10
2023-02-11T13:51:18.909Z,46.63
2023-02-11T13:53:48.279Z,44.23
2023-02-11T13:56:37.082Z,43.73
2023-02-11T13:59:27.550Z,43.60
2023-02-11T14:02:13.131Z,42.70
2023-02-11T14:05:20.168Z,42.00
2023-02-11T14:08:27.233Z,41.03
2023-02-11T14:11:16.719Z,40.83
2023-02-11T14:13:52.661Z,40.37
2023-02-11T14:16:36.964Z,42.13
2023-02-11T14:19:06.376Z,39.17
2023-02-11T14:21:38.808Z,39.87
2023-02-11T14:24:07.056Z,43.67
2023-02-11T14:26:33.834Z,47.30
2023-02-11T14:29:16.736Z,39.43
2023-02-11T14:32:05.845Z,45.23
2023-02-11T14:35:06.895Z,44.17
2023-02-11T14:37:39.708Z,39.73
2023-02-11T14:40:24.849Z,41.53
2023-02-11T14:42:54.014Z,40.90
2023-02-11T14:45:26.326Z,43.43
2023-02-11T14:48:14.716Z,41.83
2023-02-11T14:50:46.512Z,37.87
2023-02-11T14:53:21.450Z,41.70
2023-02-11T14:55:52.393Z,41.17
2023-02-11T14:58:26.923Z,44.53
2023-02-11T15:00:58.928Z,41.13
2023-02-11T15:03:28.551Z,43.67
2023-02-11T15:06:15.858Z,46.87
2023-02-11T15:08:47.318Z,44.03
2023-02-11T15:11:17.951Z,40.53
2023-02-11T15:13:48.125Z,41.07
2023-02-11T15:16:19.799Z,41.27
2023-02-11T15:19:01.288Z,43.87
2023-02-11T15:21:31.300Z,38.90
2023-02-11T15:23:59.859Z,42.30
2023-02-11T15:26:27.555Z,41.47
2023-02-11T15:28:56.107Z,46.50
2023-02-11T15:31:25.494Z,43.57
2023-02-11T15:33:53.489Z,42.03
2023-02-11T15:36:28.540Z,41.97
2023-02-11T15:39:31.141Z,43.93
2023-02-11T15:42:50.696Z,42.13
2023-02-11T15:45:28.704Z,41.50
2023-02-11T15:48:24.676Z,45.83
2023-02-11T15:51:01.563Z,47.90
2023-02-11T15:53:43.166Z,40.20
2023-02-11T15:56:13.401Z,40.33
2023-02-11T15:58:42.646Z,41.40
2023-02-11T16:01:12.845Z,38.60
2023-02-11T16:03:42.379Z,45.20
2023-02-11T16:06:42.784Z,39.63
2023-02-11T16:09:12.296Z,46.70
2023-02-11T16:11:48.318Z,43.33
2023-02-11T16:14:27.496Z,46.83
2023-02-11T16:17:00.008Z,46.53
2023-02-11T16:19:28.267Z,46.97
2023-02-11T16:21:58.046Z,42.43
2023-02-11T16:24:33.106Z,41.47
2023-02-11T16:27:06.789Z,42.60
2023-02-11T16:29:36.883Z,40.03
2023-02-11T16:32:18.969Z,42.77
2023-02-11T16:34:46.339Z,41.00
2023-02-11T16:37:13.524Z,43.20
2023-02-11T16:39:40.421Z,44.93
2023-02-11T16:42:07.668Z,43.27
2023-02-11T16:44:35.116Z,43.40
2023-02-11T16:47:03.409Z,49.03
2023-02-11T16:49:37.111Z,49.33
2023-02-11T16:52:12.537Z,46.03
2023-02-11T16:54:39.423Z,45.57
2023-02-11T16:57:18.049Z,44.97
2023-02-11T16:59:45.321Z,40.97
2023-02-11T17:02:27.904Z,42.10
2023-02-11T17:04:56.495Z,43.80
2023-02-11T17:07:23.338Z,45.10
2023-02-11T17:09:51.691Z,45.90
2023-02-11T17:12:20.052Z,48.30
2023-02-11T17:14:47.082Z,45.30
2023-02-11T17:17:14.599Z,48.40
2023-02-11T17:19:41.429Z,48.90
2023-02-11T17:22:08.322Z,48.60
2023-02-11T17:24:35.468Z,43.77
2023-02-11T17:27:02.504Z,48.00
2023-02-11T17:29:31.822Z,43.90
2023-02-11T17:31:58.743Z,38.03
2023-02-11T17:34:25.985Z,44.60
2023-02-11T17:36:52.827Z,48.20
2023-02-11T17:39:21.023Z,42.87
2023-02-11T17:41:48.364Z,51.93
2023-02-11T17:44:16.494Z,48.37
2023-02-11T17:46:43.927Z,57.73
2023-02-11T17:49:11.808Z,59.93
2023-02-11T17:51:40.320Z,42.40
2023-02-11T17:54:10.793Z,45.90
2023-02-11T17:56:38.097Z,45.03
2023-02-11T17:59:06.284Z,45.60
2023-02-11T18:01:34.471Z,45.77
2023-02-11T18:04:01.693Z,42.93
2023-02-11T18:06:29.253Z,46.93
2023-02-11T18:08:59.677Z,42.97
2023-02-11T18:11:27.991Z,51.83
2023-02-11T18:13:54.966Z,47.67
2023-02-11T18:16:23.607Z,48.60
2023-02-11T18:18:51.167Z,38.93
2023-02-11T18:21:20.151Z,47.10
2023-02-11T18:23:47.680Z,46.17
2023-02-11T18:26:16.293Z,48.03
2023-02-11T18:28:45.835Z,45.43
2023-02-11T18:31:14.159Z,49.30
2023-02-11T18:33:42.168Z,50.33
2023-02-11T18:36:12.210Z,47.13
2023-02-11T18:38:40.286Z,47.33
2023-02-11T18:41:08.264Z,48.47
2023-02-11T18:43:35.899Z,45.63
2023-02-11T18:46:07.568Z,51.63
2023-02-11T18:48:34.727Z,50.50
2023-02-11T18:51:01.596Z,52.23
2023-02-11T18:53:28.386Z,51.33
2023-02-11T18:55:55.514Z,52.80
2023-02-11T18:58:22.547Z,64.37
2023-02-11T19:00:50.494Z,45.73
2023-02-11T19:03:17.635Z,46.90
2023-02-11T19:05:47.406Z,49.90
2023-02-11T19:08:15.344Z,47.87
2023-02-11T19:10:44.520Z,52.00
2023-02-11T19:13:12.531Z,50.20
2023-02-11T19:15:46.705Z,51.13
2023-02-11T19:18:15.265Z,50.20
2023-02-11T19:20:43.888Z,46.90
2023-02-11T19:23:11.154Z,49.73
2023-02-11T19:25:44.576Z,52.10
2023-02-11T19:28:11.556Z,41.23
2023-02-11T19:30:38.529Z,53.43
2023-02-11T19:33:08.950Z,47.90
2023-02-11T19:35:36.833Z,51.47
2023-02-11T19:38:06.569Z,50.83
2023-02-11T19:40:33.624Z,48.90
2023-02-11T19:43:00.437Z,52.17
2023-02-11T19:45:27.422Z,51.83
2023-02-11T19:47:58.043Z,48.50
2023-02-11T19:50:25.236Z,48.87
2023-02-11T19:52:52.138Z,51.00
2023-02-11T19:55:19.126Z,49.03
2023-02-11T19:57:46.356Z,52.70
2023-02-11T20:00:13.666Z,48.43
2023-02-11T20:02:41.289Z,46.20
2023-02-11T20:05:11.484Z,50.57
2023-02-11T20:07:38.921Z,49.83
2023-02-11T20:10:06.878Z,50.10
2023-02-11T20:12:33.791Z,51.60
2023-02-11T20:15:00.854Z,52.20
2023-02-11T20:17:27.723Z,49.60
2023-02-11T20:19:55.218Z,46.87
2023-02-11T20:22:22.393Z,45.43
2023-02-11T20:24:49.415Z,49.27
2023-02-11T20:27:18.420Z,55.23
2023-02-11T20:29:46.979Z,56.07
2023-02-11T20:32:14.906Z,55.13
2023-02-11T20:34:42.151Z,53.17
2023-02-11T20:37:09.897Z,53.53
2023-02-11T20:39:41.097Z,53.57
2023-02-11T20:42:12.043Z,55.17
2023-02-11T20:44:39.454Z,49.70
2023-02-11T20:47:06.651Z,47.20
2023-02-11T20:49:33.761Z,49.13
2023-02-11T20:52:00.628Z,50.27
2023-02-11T20:54:27.673Z,47.30
2023-02-11T20:56:55.981Z,48.33
2023-02-11T20:59:25.435Z,55.60
2023-02-11T21:01:55.809Z,49.23
2023-02-11T21:04:29.727Z,49.10
2023-02-11T21:07:01.932Z,52.87
2023-02-11T21:09:32.239Z,48.00
2023-02-11T21:12:00.667Z,45.60
2023-02-11T21:14:28.429Z,49.27
2023-02-11T21:16:56.013Z,47.33
2023-02-11T21:19:23.233Z,44.77
2023-02-11T21:21:50.799Z,48.30
2023-02-11T21:24:18.112Z,42.17
2023-02-11T21:26:44.934Z,41.77
2023-02-11T21:29:12.153Z,40.63
2023-02-11T21:31:39.291Z,41.50
2023-02-11T21:34:07.001Z,43.53
2023-02-11T21:36:34.265Z,45.57
2023-02-11T21:39:01.952Z,45.47
2023-02-11T21:41:29.553Z,45.47
2023-02-11T21:43:56.948Z,63.87
2023-02-11T21:46:23.943Z,49.97
2023-02-11T21:48:51.035Z,43.73
2023-02-11T21:51:26.006Z,44.17
2023-02-11T21:54:03.032Z,40.17
2023-02-11T21:56:31.983Z,42.03
2023-02-11T21:59:00.287Z,37.50
2023-02-11T22:01:29.894Z,39.00
2023-02-11T22:03:57.161Z,40.50
2023-02-11T22:06:31.192Z,42.63
2023-02-11T22:08:58.997Z,42.03
2023-02-11T22:11:25.967Z,43.47
2023-02-11T22:13:56.699Z,41.30
2023-02-11T22:16:24.382Z,41.57
2023-02-11T22:18:51.616Z,42.67
2023-02-11T22:21:21.732Z,37.17
2023-02-11T22:23:49.255Z,41.80
2023-02-11T22:26:18.845Z,41.03
2023-02-11T22:28:46.762Z,43.73
2023-02-11T22:31:17.544Z,41.93
2023-02-11T22:33:45.110Z,44.57
2023-02-11T22:36:19.564Z,41.60
2023-02-11T22:38:46.793Z,44.63
2023-02-11T22:41:14.108Z,42.20
2023-02-11T22:43:43.071Z,38.90
2023-02-11T22:46:12.449Z,44.87
2023-02-11T22:48:39.443Z,42.40
2023-02-11T22:51:08.658Z,39.77
2023-02-11T22:53:36.277Z,38.47
2023-02-11T22:56:15.523Z,43.70
2023-02-11T22:58:42.896Z,40.67
2023-02-11T23:01:10.640Z,41.17
2023-02-11T23:03:37.557Z,42.03
2023-02-11T23:06:04.868Z,40.43
2023-02-11T23:08:33.153Z,42.43
2023-02-11T23:11:09.054Z,39.27
2023-02-11T23:13:38.569Z,42.53
2023-02-11T23:16:11.325Z,38.83
2023-02-11T23:18:40.453Z,38.60
2023-02-11T23:21:13.538Z,44.40
2023-02-11T23:23:40.314Z,44.67
2023-02-11T23:26:10.598Z,41.07
2023-02-11T23:28:37.809Z,39.20
2023-02-11T23:31:43.006Z,44.27
2023-02-11T23:34:10.032Z,43.43
2023-02-11T23:36:37.544Z,41.77
2023-02-11T23:39:05.284Z,39.67
2023-02-11T23:41:32.113Z,45.97
2023-02-11T23:43:59.032Z,42.57
2023-02-11T23:46:26.977Z,44.77
2023-02-11T23:48:54.269Z,45.80
2023-02-11T23:51:21.558Z,45.77
2023-02-11T23:53:51.665Z,42.17
2023-02-11T23:56:21.283Z,41.90
2023-02-11T23:58:50.226Z,41.20
